Aeroporto :
LOGIN :

Iscrizione | Disclaimer

   EN    FR    IT 

 










Sommario :    VFR   VFR Marginale   IFR   IFR Intensivo   IFR Molto Intensivo
Visibilità : 
Base nubi : 
>= 8 km
>= 3000ft
5 / 8 km
1000 / 3000 ft
1500m / 5 km
500 / 1000 ft
800 / 1500m
200 / 500 ft
< 800m
< 200 ft
Simboli :   Temporali  Nebbia  Neve Forte  Precipitazioni Forti  Vento > 20 kt
SIGMETs :   Varie  Temporali  Ghiacco  Turbolenza  Onda orograficha  Ceneri Vulcaniche






- Altitudine del aeroporto : 870 ft
- Codice IATA : ETZ


LFJL - Metz Nancy Lorraine

ULTIMO METAR :
  • 202130Z AUTO 28021G32KT 9999 SCT012/// BKN036/// BKN049/// ///TCU 06/03 Q1020 TEMPO 2500 RA BECMG BKN030

METARs OBSOLETI :
  • 202100Z AUTO 23021KT 9999 -RA BKN013/// OVC021/// ///TCU 07/06 Q1018 TEMPO 29022G40KT 2500 RA BKN013
  • 202030Z AUTO 23021KT 9999 -RA BKN022/// OVC027/// ///TCU 07/06 Q1017 TEMPO 29022G40KT 2500 RA BKN013
  • 202000Z AUTO 23023KT 9999 -RA OVC030/// ///TCU 08/05 Q1017 TEMPO 29022G40KT 2500 RA BKN013
  • 201930Z AUTO 22022KT 9999 BKN039/// OVC045/// ///TCU 09/03 Q1017 TEMPO 29022G40KT 2500 RA BKN013
  • 201900Z AUTO 21018KT 9999 OVC043 08/03 Q1017 TEMPO 25020G35KT 2500 RA BKN013

TAF TAF LFJL
Valido dal 20 a 18 ore il 21 a 18 ore UTC


201700Z 2018/2118 23015G25KT 9999 BKN030
TEMPO 2018/2021 -RA
PROB40
TEMPO 2020/2021 25020G35KT
TEMPO 2021/2023 29022G40KT
TEMPO 2020/2023 2500 RA BKN013
TEMPO 2023/2102 29015G25KT -SHRA
BECMG 2102/2104 23008KT
PROB40
TEMPO 2105/2110 BKN005
BECMG 2116/2118 CAVOK



MetMap, La meteo Aeronautica in un colpo d'occhio ! - Copyright ORBIFLY Dicembre 2007 - Disclaimer

ORBIFLY MET'MAP TEAM :

Programmazione e sviluppo : Alexandra Zaïnal
Concezione : Baudouin d'Aumeries
Aiuto per la programmazione : Marc-Olivier Méhu
Supporto tecnico e logistico : Manuel Goepfert
Aiuto per la traduzione : Arnaldo La Scala

Contatto : metmap@orbifly.com




FONTI E CREDITI :

   NOAA